sensor_id;sensor_type;location;lat;lon;timestamp;temperature;humidity
52044;DHT22;38053;53.100;6.078;2023-07-13T00:01:15;17.70;99.90
52044;DHT22;38053;53.100;6.078;2023-07-13T00:03:41;17.70;99.90
52044;DHT22;38053;53.100;6.078;2023-07-13T00:06:09;17.70;99.90
52044;DHT22;38053;53.100;6.078;2023-07-13T00:08:37;17.70;99.90
52044;DHT22;38053;53.100;6.078;2023-07-13T00:11:03;17.70;99.90
52044;DHT22;38053;53.100;6.078;2023-07-13T00:13:29;17.70;99.90
52044;DHT22;38053;53.100;6.078;2023-07-13T00:15:55;17.70;99.90
52044;DHT22;38053;53.100;6.078;2023-07-13T00:18:21;17.70;99.90
52044;DHT22;38053;53.100;6.078;2023-07-13T00:20:47;17.70;99.90
52044;DHT22;38053;53.100;6.078;2023-07-13T00:23:13;17.60;99.90
52044;DHT22;38053;53.100;6.078;2023-07-13T00:25:40;17.60;99.90
52044;DHT22;38053;53.100;6.078;2023-07-13T00:28:07;17.60;99.90
52044;DHT22;38053;53.100;6.078;2023-07-13T00:30:36;17.50;99.90
52044;DHT22;38053;53.100;6.078;2023-07-13T00:33:02;17.40;99.90
52044;DHT22;38053;53.100;6.078;2023-07-13T00:35:30;17.40;99.90
52044;DHT22;38053;53.100;6.078;2023-07-13T00:37:56;17.30;99.90
52044;DHT22;38053;53.100;6.078;2023-07-13T00:40:22;17.30;99.90
52044;DHT22;38053;53.100;6.078;2023-07-13T00:42:47;17.20;99.90
52044;DHT22;38053;53.100;6.078;2023-07-13T00:47:39;17.20;99.90
52044;DHT22;38053;53.100;6.078;2023-07-13T00:50:05;17.10;99.90
52044;DHT22;38053;53.100;6.078;2023-07-13T00:52:31;17.00;99.90
52044;DHT22;38053;53.100;6.078;2023-07-13T00:54:57;17.00;99.90
52044;DHT22;38053;53.100;6.078;2023-07-13T00:57:23;16.90;99.90
52044;DHT22;38053;53.100;6.078;2023-07-13T00:59:54;17.00;99.90
52044;DHT22;38053;53.100;6.078;2023-07-13T01:02:21;17.00;99.90
52044;DHT22;38053;53.100;6.078;2023-07-13T01:04:47;17.00;99.90
52044;DHT22;38053;53.100;6.078;2023-07-13T01:07:13;17.00;99.90
52044;DHT22;38053;53.100;6.078;2023-07-13T01:09:39;17.00;99.90
52044;DHT22;38053;53.100;6.078;2023-07-13T01:12:04;17.10;99.90
52044;DHT22;38053;53.100;6.078;2023-07-13T01:14:30;17.00;99.90
52044;DHT22;38053;53.100;6.078;2023-07-13T01:16:56;17.10;99.90
52044;DHT22;38053;53.100;6.078;2023-07-13T01:22:05;17.00;99.90
52044;DHT22;38053;53.100;6.078;2023-07-13T01:24:34;17.00;99.90
52044;DHT22;38053;53.100;6.078;2023-07-13T01:27:00;17.00;99.90
52044;DHT22;38053;53.100;6.078;2023-07-13T01:29:25;16.90;99.90
52044;DHT22;38053;53.100;6.078;2023-07-13T01:31:51;16.90;99.90
52044;DHT22;38053;53.100;6.078;2023-07-13T01:34:17;16.80;99.90
52044;DHT22;38053;53.100;6.078;2023-07-13T01:36:42;16.80;99.90
52044;DHT22;38053;53.100;6.078;2023-07-13T01:39:08;16.80;99.90
52044;DHT22;38053;53.100;6.078;2023-07-13T01:41:33;16.80;99.90
52044;DHT22;38053;53.100;6.078;2023-07-13T01:43:59;16.70;99.90
52044;DHT22;38053;53.100;6.078;2023-07-13T01:46:25;16.60;99.90
52044;DHT22;38053;53.100;6.078;2023-07-13T01:48:50;16.60;99.90
52044;DHT22;38053;53.100;6.078;2023-07-13T01:51:17;16.60;99.90
52044;DHT22;38053;53.100;6.078;2023-07-13T01:53:43;16.60;99.90
52044;DHT22;38053;53.100;6.078;2023-07-13T01:56:08;16.50;99.90
52044;DHT22;38053;53.100;6.078;2023-07-13T01:58:34;16.50;99.90
52044;DHT22;38053;53.100;6.078;2023-07-13T02:01:00;16.50;99.90
52044;DHT22;38053;53.100;6.078;2023-07-13T02:03:25;16.50;99.90
52044;DHT22;38053;53.100;6.078;2023-07-13T02:05:51;16.40;99.90
52044;DHT22;38053;53.100;6.078;2023-07-13T02:08:16;16.40;99.90
52044;DHT22;38053;53.100;6.078;2023-07-13T02:10:42;16.30;99.90
52044;DHT22;38053;53.100;6.078;2023-07-13T02:13:07;16.30;99.90
52044;DHT22;38053;53.100;6.078;2023-07-13T02:15:33;16.20;99.90
52044;DHT22;38053;53.100;6.078;2023-07-13T02:17:59;16.20;99.90
52044;DHT22;38053;53.100;6.078;2023-07-13T02:20:25;16.10;99.90
52044;DHT22;38053;53.100;6.078;2023-07-13T02:22:51;16.10;99.90
52044;DHT22;38053;53.100;6.078;2023-07-13T02:25:17;16.10;99.90
52044;DHT22;38053;53.100;6.078;2023-07-13T02:27:42;16.00;99.90
52044;DHT22;38053;53.100;6.078;2023-07-13T02:30:08;16.00;99.90
52044;DHT22;38053;53.100;6.078;2023-07-13T02:32:34;15.90;99.90
52044;DHT22;38053;53.100;6.078;2023-07-13T02:35:00;15.90;99.90
52044;DHT22;38053;53.100;6.078;2023-07-13T02:37:26;15.80;99.90
52044;DHT22;38053;53.100;6.078;2023-07-13T02:39:51;15.80;99.90
52044;DHT22;38053;53.100;6.078;2023-07-13T02:42:17;15.80;99.90
52044;DHT22;38053;53.100;6.078;2023-07-13T02:44:43;15.80;99.90
52044;DHT22;38053;53.100;6.078;2023-07-13T02:47:08;15.80;99.90
52044;DHT22;38053;53.100;6.078;2023-07-13T02:49:34;15.70;99.90
52044;DHT22;38053;53.100;6.078;2023-07-13T02:51:59;15.70;99.90
52044;DHT22;38053;53.100;6.078;2023-07-13T02:54:25;15.70;99.90
52044;DHT22;38053;53.100;6.078;2023-07-13T02:56:50;15.60;99.90
52044;DHT22;38053;53.100;6.078;2023-07-13T02:59:16;15.60;99.90
52044;DHT22;38053;53.100;6.078;2023-07-13T03:01:42;15.60;99.90
52044;DHT22;38053;53.100;6.078;2023-07-13T03:04:07;15.60;99.90
52044;DHT22;38053;53.100;6.078;2023-07-13T03:06:33;15.60;99.90
52044;DHT22;38053;53.100;6.078;2023-07-13T03:08:59;15.60;99.90
52044;DHT22;38053;53.100;6.078;2023-07-13T03:11:25;15.60;99.90
52044;DHT22;38053;53.100;6.078;2023-07-13T03:13:51;15.60;99.90
52044;DHT22;38053;53.100;6.078;2023-07-13T03:16:16;15.60;99.90
52044;DHT22;38053;53.100;6.078;2023-07-13T03:18:42;15.60;99.90
52044;DHT22;38053;53.100;6.078;2023-07-13T03:21:08;15.60;99.90
52044;DHT22;38053;53.100;6.078;2023-07-13T03:23:34;15.60;99.90
52044;DHT22;38053;53.100;6.078;2023-07-13T03:26:07;15.60;99.90
52044;DHT22;38053;53.100;6.078;2023-07-13T03:28:33;15.60;99.90
52044;DHT22;38053;53.100;6.078;2023-07-13T03:30:59;15.60;99.90
52044;DHT22;38053;53.100;6.078;2023-07-13T03:33:25;15.60;99.90
52044;DHT22;38053;53.100;6.078;2023-07-13T03:35:50;15.60;99.90
52044;DHT22;38053;53.100;6.078;2023-07-13T03:38:16;15.60;99.90
52044;DHT22;38053;53.100;6.078;2023-07-13T03:40:42;15.60;99.90
52044;DHT22;38053;53.100;6.078;2023-07-13T03:43:07;15.60;99.90
52044;DHT22;38053;53.100;6.078;2023-07-13T03:45:33;15.60;99.90
52044;DHT22;38053;53.100;6.078;2023-07-13T03:47:58;15.50;99.90
52044;DHT22;38053;53.100;6.078;2023-07-13T03:50:24;15.50;99.90
52044;DHT22;38053;53.100;6.078;2023-07-13T03:52:49;15.50;99.90
52044;DHT22;38053;53.100;6.078;2023-07-13T03:55:15;15.50;99.90
52044;DHT22;38053;53.100;6.078;2023-07-13T03:57:40;15.50;99.90
52044;DHT22;38053;53.100;6.078;2023-07-13T04:00:06;15.50;99.90
52044;DHT22;38053;53.100;6.078;2023-07-13T04:02:32;15.50;99.90
52044;DHT22;38053;53.100;6.078;2023-07-13T04:04:57;15.60;99.90
52044;DHT22;38053;53.100;6.078;2023-07-13T04:07:23;15.60;99.90
52044;DHT22;38053;53.100;6.078;2023-07-13T04:09:48;15.60;99.90
52044;DHT22;38053;53.100;6.078;2023-07-13T04:12:14;15.60;99.90
52044;DHT22;38053;53.100;6.078;2023-07-13T04:14:40;15.60;99.90
52044;DHT22;38053;53.100;6.078;2023-07-13T04:17:05;15.70;99.90
52044;DHT22;38053;53.100;6.078;2023-07-13T04:19:31;15.70;99.90
52044;DHT22;38053;53.100;6.078;2023-07-13T04:21:57;15.70;99.90
52044;DHT22;38053;53.100;6.078;2023-07-13T04:24:22;15.80;99.90
52044;DHT22;38053;53.100;6.078;2023-07-13T04:26:48;15.80;99.90
52044;DHT22;38053;53.100;6.078;2023-07-13T04:29:13;15.80;99.90
52044;DHT22;38053;53.100;6.078;2023-07-13T04:31:39;15.80;99.90
52044;DHT22;38053;53.100;6.078;2023-07-13T04:34:04;15.80;99.90
52044;DHT22;38053;53.100;6.078;2023-07-13T04:36:30;15.90;99.90
52044;DHT22;38053;53.100;6.078;2023-07-13T04:38:55;15.90;99.90
52044;DHT22;38053;53.100;6.078;2023-07-13T04:41:21;15.90;99.90
52044;DHT22;38053;53.100;6.078;2023-07-13T04:43:47;15.90;99.90
52044;DHT22;38053;53.100;6.078;2023-07-13T04:46:14;15.90;99.90
52044;DHT22;38053;53.100;6.078;2023-07-13T04:48:39;16.00;99.90
52044;DHT22;38053;53.100;6.078;2023-07-13T04:51:05;16.00;99.90
52044;DHT22;38053;53.100;6.078;2023-07-13T04:53:31;16.00;99.90
52044;DHT22;38053;53.100;6.078;2023-07-13T04:55:57;16.10;99.90
52044;DHT22;38053;53.100;6.078;2023-07-13T04:58:24;16.10;99.90
52044;DHT22;38053;53.100;6.078;2023-07-13T05:00:50;16.10;99.90
52044;DHT22;38053;53.100;6.078;2023-07-13T05:03:15;16.20;99.90
52044;DHT22;38053;53.100;6.078;2023-07-13T05:05:41;16.20;99.90
52044;DHT22;38053;53.100;6.078;2023-07-13T05:08:07;16.20;99.90
52044;DHT22;38053;53.100;6.078;2023-07-13T05:10:33;16.20;99.90
52044;DHT22;38053;53.100;6.078;2023-07-13T05:12:58;16.30;99.90
52044;DHT22;38053;53.100;6.078;2023-07-13T05:15:24;16.30;99.90
52044;DHT22;38053;53.100;6.078;2023-07-13T05:17:51;16.40;99.90
52044;DHT22;38053;53.100;6.078;2023-07-13T05:20:17;16.40;99.90
52044;DHT22;38053;53.100;6.078;2023-07-13T05:22:43;16.40;99.90
52044;DHT22;38053;53.100;6.078;2023-07-13T05:25:08;16.40;99.90
52044;DHT22;38053;53.100;6.078;2023-07-13T05:27:35;16.40;99.90
52044;DHT22;38053;53.100;6.078;2023-07-13T05:30:01;16.50;99.90
52044;DHT22;38053;53.100;6.078;2023-07-13T05:32:27;16.50;99.90
52044;DHT22;38053;53.100;6.078;2023-07-13T05:34:52;16.60;99.90
52044;DHT22;38053;53.100;6.078;2023-07-13T05:37:18;16.60;99.90
52044;DHT22;38053;53.100;6.078;2023-07-13T05:39:44;16.60;99.90
52044;DHT22;38053;53.100;6.078;2023-07-13T05:42:10;16.70;99.90
52044;DHT22;38053;53.100;6.078;2023-07-13T05:44:37;16.70;99.90
52044;DHT22;38053;53.100;6.078;2023-07-13T05:47:03;16.80;99.90
52044;DHT22;38053;53.100;6.078;2023-07-13T05:49:29;16.80;99.90
52044;DHT22;38053;53.100;6.078;2023-07-13T05:51:55;16.90;99.90
52044;DHT22;38053;53.100;6.078;2023-07-13T05:54:21;16.90;99.90
52044;DHT22;38053;53.100;6.078;2023-07-13T05:56:47;17.00;99.90
52044;DHT22;38053;53.100;6.078;2023-07-13T05:59:12;17.00;99.90
52044;DHT22;38053;53.100;6.078;2023-07-13T06:01:38;17.10;99.90
52044;DHT22;38053;53.100;6.078;2023-07-13T06:04:04;17.10;99.90
52044;DHT22;38053;53.100;6.078;2023-07-13T06:06:29;17.20;99.90
52044;DHT22;38053;53.100;6.078;2023-07-13T06:08:55;17.30;99.90
52044;DHT22;38053;53.100;6.078;2023-07-13T06:11:22;17.40;99.90
52044;DHT22;38053;53.100;6.078;2023-07-13T06:13:48;17.50;99.90
52044;DHT22;38053;53.100;6.078;2023-07-13T06:16:13;17.60;99.90
52044;DHT22;38053;53.100;6.078;2023-07-13T06:18:40;17.70;99.90
52044;DHT22;38053;53.100;6.078;2023-07-13T06:21:09;17.90;99.90
52044;DHT22;38053;53.100;6.078;2023-07-13T06:23:35;18.10;99.90
52044;DHT22;38053;53.100;6.078;2023-07-13T06:26:00;18.30;99.90
52044;DHT22;38053;53.100;6.078;2023-07-13T06:28:26;18.40;99.90
52044;DHT22;38053;53.100;6.078;2023-07-13T06:30:52;18.40;99.90
52044;DHT22;38053;53.100;6.078;2023-07-13T06:33:17;18.40;99.90
52044;DHT22;38053;53.100;6.078;2023-07-13T06:35:43;18.30;99.90
52044;DHT22;38053;53.100;6.078;2023-07-13T06:38:08;18.20;99.90
52044;DHT22;38053;53.100;6.078;2023-07-13T06:40:34;18.10;99.90
52044;DHT22;38053;53.100;6.078;2023-07-13T06:43:00;18.00;99.90
52044;DHT22;38053;53.100;6.078;2023-07-13T06:45:25;18.00;99.90
52044;DHT22;38053;53.100;6.078;2023-07-13T06:47:51;17.90;99.90
52044;DHT22;38053;53.100;6.078;2023-07-13T06:50:16;17.90;99.90
52044;DHT22;38053;53.100;6.078;2023-07-13T06:52:42;17.90;99.90
52044;DHT22;38053;53.100;6.078;2023-07-13T06:55:08;17.90;99.90
52044;DHT22;38053;53.100;6.078;2023-07-13T06:57:33;18.00;99.90
52044;DHT22;38053;53.100;6.078;2023-07-13T06:59:59;18.10;99.90
52044;DHT22;38053;53.100;6.078;2023-07-13T07:02:25;18.30;99.90
52044;DHT22;38053;53.100;6.078;2023-07-13T07:04:50;18.40;99.90
52044;DHT22;38053;53.100;6.078;2023-07-13T07:07:16;18.50;99.90
52044;DHT22;38053;53.100;6.078;2023-07-13T07:09:41;18.50;99.90
52044;DHT22;38053;53.100;6.078;2023-07-13T07:12:07;18.50;99.90
52044;DHT22;38053;53.100;6.078;2023-07-13T07:14:33;18.40;99.90
52044;DHT22;38053;53.100;6.078;2023-07-13T07:16:59;18.20;99.90
52044;DHT22;38053;53.100;6.078;2023-07-13T07:19:26;18.00;99.90
52044;DHT22;38053;53.100;6.078;2023-07-13T07:21:51;17.70;99.90
52044;DHT22;38053;53.100;6.078;2023-07-13T07:24:17;17.40;99.90
52044;DHT22;38053;53.100;6.078;2023-07-13T07:26:43;17.30;99.90
52044;DHT22;38053;53.100;6.078;2023-07-13T07:29:08;17.20;99.90
52044;DHT22;38053;53.100;6.078;2023-07-13T07:31:34;17.20;99.90
52044;DHT22;38053;53.100;6.078;2023-07-13T07:33:59;17.20;99.90
52044;DHT22;38053;53.100;6.078;2023-07-13T07:36:25;17.20;99.90
52044;DHT22;38053;53.100;6.078;2023-07-13T07:38:51;17.20;99.90
52044;DHT22;38053;53.100;6.078;2023-07-13T07:41:16;17.20;99.90
52044;DHT22;38053;53.100;6.078;2023-07-13T07:43:42;17.30;99.90
52044;DHT22;38053;53.100;6.078;2023-07-13T07:46:07;17.30;99.90
52044;DHT22;38053;53.100;6.078;2023-07-13T07:48:33;17.30;99.90
52044;DHT22;38053;53.100;6.078;2023-07-13T07:50:59;17.30;99.90
52044;DHT22;38053;53.100;6.078;2023-07-13T07:53:24;17.40;99.90
52044;DHT22;38053;53.100;6.078;2023-07-13T07:55:50;17.40;99.90
52044;DHT22;38053;53.100;6.078;2023-07-13T07:58:16;17.40;99.90
52044;DHT22;38053;53.100;6.078;2023-07-13T08:00:42;17.40;99.90
52044;DHT22;38053;53.100;6.078;2023-07-13T08:03:07;17.50;99.90
52044;DHT22;38053;53.100;6.078;2023-07-13T08:05:35;17.60;99.90
52044;DHT22;38053;53.100;6.078;2023-07-13T08:08:00;17.70;99.90
52044;DHT22;38053;53.100;6.078;2023-07-13T08:10:26;17.70;99.90
52044;DHT22;38053;53.100;6.078;2023-07-13T08:12:52;17.80;99.90
52044;DHT22;38053;53.100;6.078;2023-07-13T08:15:17;17.90;99.90
52044;DHT22;38053;53.100;6.078;2023-07-13T08:17:46;18.10;99.90
52044;DHT22;38053;53.100;6.078;2023-07-13T08:20:12;18.40;99.90
52044;DHT22;38053;53.100;6.078;2023-07-13T08:22:38;18.50;99.90
52044;DHT22;38053;53.100;6.078;2023-07-13T08:25:03;18.60;99.90
52044;DHT22;38053;53.100;6.078;2023-07-13T08:27:29;18.60;99.90
52044;DHT22;38053;53.100;6.078;2023-07-13T08:29:54;18.60;99.90
52044;DHT22;38053;53.100;6.078;2023-07-13T08:32:21;18.60;99.90
52044;DHT22;38053;53.100;6.078;2023-07-13T08:34:47;18.60;99.90
52044;DHT22;38053;53.100;6.078;2023-07-13T08:37:12;18.70;99.90
52044;DHT22;38053;53.100;6.078;2023-07-13T08:39:38;18.70;99.90
52044;DHT22;38053;53.100;6.078;2023-07-13T08:42:22;18.80;99.90
52044;DHT22;38053;53.100;6.078;2023-07-13T08:47:23;18.70;99.90
52044;DHT22;38053;53.100;6.078;2023-07-13T08:49:49;18.70;99.90
52044;DHT22;38053;53.100;6.078;2023-07-13T08:52:37;18.60;99.90
52044;DHT22;38053;53.100;6.078;2023-07-13T08:55:17;18.60;99.90
52044;DHT22;38053;53.100;6.078;2023-07-13T08:57:44;18.60;99.90
52044;DHT22;38053;53.100;6.078;2023-07-13T09:00:12;18.90;99.90
52044;DHT22;38053;53.100;6.078;2023-07-13T09:02:42;19.10;99.90
52044;DHT22;38053;53.100;6.078;2023-07-13T09:07:42;19.40;99.90
52044;DHT22;38053;53.100;6.078;2023-07-13T09:20:24;19.70;99.90
52044;DHT22;38053;53.100;6.078;2023-07-13T09:22:51;19.80;99.90
52044;DHT22;38053;53.100;6.078;2023-07-13T09:27:49;19.90;99.90
52044;DHT22;38053;53.100;6.078;2023-07-13T09:32:47;19.90;99.90
52044;DHT22;38053;53.100;6.078;2023-07-13T09:35:21;19.90;99.90
52044;DHT22;38053;53.100;6.078;2023-07-13T09:37:48;20.00;99.90
52044;DHT22;38053;53.100;6.078;2023-07-13T09:40:21;20.10;99.90
52044;DHT22;38053;53.100;6.078;2023-07-13T09:42:52;20.20;99.90
52044;DHT22;38053;53.100;6.078;2023-07-13T09:45:28;20.30;99.90
52044;DHT22;38053;53.100;6.078;2023-07-13T09:48:00;20.30;99.90
52044;DHT22;38053;53.100;6.078;2023-07-13T09:50:28;20.30;99.90
52044;DHT22;38053;53.100;6.078;2023-07-13T09:52:54;20.30;99.90
52044;DHT22;38053;53.100;6.078;2023-07-13T09:55:39;20.50;99.90
52044;DHT22;38053;53.100;6.078;2023-07-13T09:58:16;20.50;99.90
52044;DHT22;38053;53.100;6.078;2023-07-13T10:00:50;20.60;99.90
52044;DHT22;38053;53.100;6.078;2023-07-13T10:03:37;20.60;99.90
52044;DHT22;38053;53.100;6.078;2023-07-13T10:06:15;20.90;99.90
52044;DHT22;38053;53.100;6.078;2023-07-13T10:08:41;21.10;99.90
52044;DHT22;38053;53.100;6.078;2023-07-13T10:11:12;21.00;99.90
52044;DHT22;38053;53.100;6.078;2023-07-13T10:14:00;20.90;99.90
52044;DHT22;38053;53.100;6.078;2023-07-13T10:16:31;20.60;99.90
52044;DHT22;38053;53.100;6.078;2023-07-13T10:19:04;20.40;99.90
52044;DHT22;38053;53.100;6.078;2023-07-13T10:21:43;20.30;99.90
52044;DHT22;38053;53.100;6.078;2023-07-13T10:24:21;20.40;99.90
52044;DHT22;38053;53.100;6.078;2023-07-13T10:27:11;20.60;99.90
52044;DHT22;38053;53.100;6.078;2023-07-13T10:29:50;20.90;99.90
52044;DHT22;38053;53.100;6.078;2023-07-13T10:32:19;21.10;99.90
52044;DHT22;38053;53.100;6.078;2023-07-13T10:34:47;21.20;99.90
52044;DHT22;38053;53.100;6.078;2023-07-13T10:37:22;21.10;99.90
52044;DHT22;38053;53.100;6.078;2023-07-13T10:39:51;21.10;99.90
52044;DHT22;38053;53.100;6.078;2023-07-13T10:42:39;21.20;99.90
52044;DHT22;38053;53.100;6.078;2023-07-13T10:45:14;21.50;99.90
52044;DHT22;38053;53.100;6.078;2023-07-13T10:47:40;21.70;99.90
52044;DHT22;38053;53.100;6.078;2023-07-13T10:50:20;21.90;99.90
52044;DHT22;38053;53.100;6.078;2023-07-13T10:52:52;21.90;99.90
52044;DHT22;38053;53.100;6.078;2023-07-13T10:58:18;21.90;99.90
52044;DHT22;38053;53.100;6.078;2023-07-13T11:07:28;22.40;99.90
52044;DHT22;38053;53.100;6.078;2023-07-13T11:09:56;22.40;99.90
52044;DHT22;38053;53.100;6.078;2023-07-13T11:17:33;22.00;99.90
52044;DHT22;38053;53.100;6.078;2023-07-13T11:28:16;22.40;99.90
52044;DHT22;38053;53.100;6.078;2023-07-13T11:30:50;22.50;99.90
52044;DHT22;38053;53.100;6.078;2023-07-13T11:36:15;22.70;99.90
52044;DHT22;38053;53.100;6.078;2023-07-13T11:38:47;22.90;99.90
52044;DHT22;38053;53.100;6.078;2023-07-13T11:41:23;23.10;99.90
52044;DHT22;38053;53.100;6.078;2023-07-13T11:43:53;23.20;99.90
52044;DHT22;38053;53.100;6.078;2023-07-13T11:46:25;23.50;99.90
52044;DHT22;38053;53.100;6.078;2023-07-13T11:48:52;23.80;99.90
52044;DHT22;38053;53.100;6.078;2023-07-13T11:51:35;24.00;99.90
52044;DHT22;38053;53.100;6.078;2023-07-13T11:54:13;24.30;99.80
52044;DHT22;38053;53.100;6.078;2023-07-13T11:56:43;24.30;99.40
52044;DHT22;38053;53.100;6.078;2023-07-13T11:59:12;24.20;98.90
52044;DHT22;38053;53.100;6.078;2023-07-13T12:01:49;24.10;98.80
52044;DHT22;38053;53.100;6.078;2023-07-13T12:04:29;23.90;98.50
52044;DHT22;38053;53.100;6.078;2023-07-13T12:07:18;24.00;99.10
52044;DHT22;38053;53.100;6.078;2023-07-13T12:09:44;24.00;99.20
52044;DHT22;38053;53.100;6.078;2023-07-13T12:12:17;24.20;98.70
52044;DHT22;38053;53.100;6.078;2023-07-13T12:14:44;24.20;98.20
52044;DHT22;38053;53.100;6.078;2023-07-13T12:17:20;24.30;98.30
52044;DHT22;38053;53.100;6.078;2023-07-13T12:19:47;24.20;98.20
52044;DHT22;38053;53.100;6.078;2023-07-13T12:22:14;24.30;97.90
52044;DHT22;38053;53.100;6.078;2023-07-13T12:24:41;24.40;97.10
52044;DHT22;38053;53.100;6.078;2023-07-13T12:27:21;24.40;97.10
52044;DHT22;38053;53.100;6.078;2023-07-13T12:30:04;24.40;97.00
52044;DHT22;38053;53.100;6.078;2023-07-13T12:32:31;24.50;97.60
52044;DHT22;38053;53.100;6.078;2023-07-13T12:35:17;24.70;97.40
52044;DHT22;38053;53.100;6.078;2023-07-13T12:37:46;24.60;97.70
52044;DHT22;38053;53.100;6.078;2023-07-13T12:40:20;24.60;97.70
52044;DHT22;38053;53.100;6.078;2023-07-13T12:42:49;24.50;96.60
52044;DHT22;38053;53.100;6.078;2023-07-13T12:45:21;24.20;97.20
52044;DHT22;38053;53.100;6.078;2023-07-13T12:47:56;24.20;97.70
52044;DHT22;38053;53.100;6.078;2023-07-13T12:50:34;24.50;97.80
52044;DHT22;38053;53.100;6.078;2023-07-13T12:53:04;24.70;98.30
52044;DHT22;38053;53.100;6.078;2023-07-13T12:55:59;24.80;97.80
52044;DHT22;38053;53.100;6.078;2023-07-13T12:58:30;24.90;97.80
52044;DHT22;38053;53.100;6.078;2023-07-13T13:01:01;25.10;97.70
52044;DHT22;38053;53.100;6.078;2023-07-13T13:08:47;25.10;97.80
52044;DHT22;38053;53.100;6.078;2023-07-13T13:11:17;24.90;96.30
52044;DHT22;38053;53.100;6.078;2023-07-13T13:13:44;25.20;96.60
52044;DHT22;38053;53.100;6.078;2023-07-13T13:16:22;25.20;96.10
52044;DHT22;38053;53.100;6.078;2023-07-13T13:18:50;25.10;96.00
52044;DHT22;38053;53.100;6.078;2023-07-13T13:21:17;25.20;95.50
52044;DHT22;38053;53.100;6.078;2023-07-13T13:23:45;25.20;95.80
52044;DHT22;38053;53.100;6.078;2023-07-13T13:26:14;25.30;95.00
52044;DHT22;38053;53.100;6.078;2023-07-13T13:28:42;25.30;94.20
52044;DHT22;38053;53.100;6.078;2023-07-13T13:31:09;25.30;94.90
52044;DHT22;38053;53.100;6.078;2023-07-13T13:33:40;25.30;95.20
52044;DHT22;38053;53.100;6.078;2023-07-13T13:36:22;25.50;95.80
52044;DHT22;38053;53.100;6.078;2023-07-13T13:38:49;25.80;94.90
52044;DHT22;38053;53.100;6.078;2023-07-13T13:41:16;25.70;94.90
52044;DHT22;38053;53.100;6.078;2023-07-13T13:43:43;25.90;95.90
52044;DHT22;38053;53.100;6.078;2023-07-13T13:46:22;26.30;94.60
52044;DHT22;38053;53.100;6.078;2023-07-13T13:48:50;26.60;93.60
52044;DHT22;38053;53.100;6.078;2023-07-13T13:51:19;26.50;93.40
52044;DHT22;38053;53.100;6.078;2023-07-13T13:53:45;26.50;92.70
52044;DHT22;38053;53.100;6.078;2023-07-13T13:56:12;26.70;93.70
52044;DHT22;38053;53.100;6.078;2023-07-13T13:58:39;26.80;93.30
52044;DHT22;38053;53.100;6.078;2023-07-13T14:01:10;26.80;93.50
52044;DHT22;38053;53.100;6.078;2023-07-13T14:03:37;27.00;93.60
52044;DHT22;38053;53.100;6.078;2023-07-13T14:06:03;26.80;93.30
52044;DHT22;38053;53.100;6.078;2023-07-13T14:08:29;26.70;93.70
52044;DHT22;38053;53.100;6.078;2023-07-13T14:10:56;26.10;94.30
52044;DHT22;38053;53.100;6.078;2023-07-13T14:13:28;26.00;94.80
52044;DHT22;38053;53.100;6.078;2023-07-13T14:15:55;25.40;94.70
52044;DHT22;38053;53.100;6.078;2023-07-13T14:18:21;25.30;94.20
52044;DHT22;38053;53.100;6.078;2023-07-13T14:20:47;24.90;95.00
52044;DHT22;38053;53.100;6.078;2023-07-13T14:23:14;24.80;95.10
52044;DHT22;38053;53.100;6.078;2023-07-13T14:25:41;24.90;94.80
52044;DHT22;38053;53.100;6.078;2023-07-13T14:30:44;25.30;94.50
52044;DHT22;38053;53.100;6.078;2023-07-13T14:33:11;25.20;94.00
52044;DHT22;38053;53.100;6.078;2023-07-13T14:35:37;25.20;95.00
52044;DHT22;38053;53.100;6.078;2023-07-13T14:38:03;25.10;95.00
52044;DHT22;38053;53.100;6.078;2023-07-13T14:40:31;24.90;95.00
52044;DHT22;38053;53.100;6.078;2023-07-13T14:42:57;24.70;95.00
52044;DHT22;38053;53.100;6.078;2023-07-13T14:45:24;24.10;95.70
52044;DHT22;38053;53.100;6.078;2023-07-13T14:47:50;23.90;95.90
52044;DHT22;38053;53.100;6.078;2023-07-13T14:50:26;23.80;95.40
52044;DHT22;38053;53.100;6.078;2023-07-13T14:52:54;23.80;95.70
52044;DHT22;38053;53.100;6.078;2023-07-13T14:55:20;24.10;95.80
52044;DHT22;38053;53.100;6.078;2023-07-13T14:57:48;24.00;96.30
52044;DHT22;38053;53.100;6.078;2023-07-13T15:00:18;24.20;95.80
52044;DHT22;38053;53.100;6.078;2023-07-13T15:02:52;24.10;96.70
52044;DHT22;38053;53.100;6.078;2023-07-13T15:05:25;24.30;96.10
52044;DHT22;38053;53.100;6.078;2023-07-13T15:07:52;24.40;95.70
52044;DHT22;38053;53.100;6.078;2023-07-13T15:10:24;24.30;96.10
52044;DHT22;38053;53.100;6.078;2023-07-13T15:12:56;24.30;95.90
52044;DHT22;38053;53.100;6.078;2023-07-13T15:15:23;24.30;96.00
52044;DHT22;38053;53.100;6.078;2023-07-13T15:17:49;24.20;96.70
52044;DHT22;38053;53.100;6.078;2023-07-13T15:20:33;24.10;97.20
52044;DHT22;38053;53.100;6.078;2023-07-13T15:23:02;24.10;97.20
52044;DHT22;38053;53.100;6.078;2023-07-13T15:25:30;24.10;97.00
52044;DHT22;38053;53.100;6.078;2023-07-13T15:27:57;24.30;96.20
52044;DHT22;38053;53.100;6.078;2023-07-13T15:30:26;24.50;95.00
52044;DHT22;38053;53.100;6.078;2023-07-13T15:32:52;24.40;95.90
52044;DHT22;38053;53.100;6.078;2023-07-13T15:35:24;24.50;95.20
52044;DHT22;38053;53.100;6.078;2023-07-13T15:37:50;24.80;95.20
52044;DHT22;38053;53.100;6.078;2023-07-13T15:40:16;25.00;95.10
52044;DHT22;38053;53.100;6.078;2023-07-13T15:42:43;25.00;94.90
52044;DHT22;38053;53.100;6.078;2023-07-13T15:45:20;25.30;94.90
52044;DHT22;38053;53.100;6.078;2023-07-13T15:47:47;25.60;94.30
52044;DHT22;38053;53.100;6.078;2023-07-13T15:50:18;25.80;94.60
52044;DHT22;38053;53.100;6.078;2023-07-13T15:52:47;26.20;93.50
52044;DHT22;38053;53.100;6.078;2023-07-13T15:55:13;26.90;92.80
52044;DHT22;38053;53.100;6.078;2023-07-13T15:57:46;27.60;92.40
52044;DHT22;38053;53.100;6.078;2023-07-13T16:00:26;27.90;92.20
52044;DHT22;38053;53.100;6.078;2023-07-13T16:02:52;27.80;91.60
52044;DHT22;38053;53.100;6.078;2023-07-13T16:05:20;28.00;92.10
52044;DHT22;38053;53.100;6.078;2023-07-13T16:07:49;28.40;92.20
52044;DHT22;38053;53.100;6.078;2023-07-13T16:10:21;28.60;92.00
52044;DHT22;38053;53.100;6.078;2023-07-13T16:12:48;29.10;91.30
52044;DHT22;38053;53.100;6.078;2023-07-13T16:15:19;29.10;91.40
52044;DHT22;38053;53.100;6.078;2023-07-13T16:17:46;29.50;90.70
52044;DHT22;38053;53.100;6.078;2023-07-13T16:20:13;29.80;90.80
52044;DHT22;38053;53.100;6.078;2023-07-13T16:22:40;29.70;90.60
52044;DHT22;38053;53.100;6.078;2023-07-13T16:25:24;29.70;90.20
52044;DHT22;38053;53.100;6.078;2023-07-13T16:27:52;29.90;88.40
52044;DHT22;38053;53.100;6.078;2023-07-13T16:30:23;30.20;90.00
52044;DHT22;38053;53.100;6.078;2023-07-13T16:32:52;30.10;89.70
52044;DHT22;38053;53.100;6.078;2023-07-13T16:35:23;30.70;89.60